sensor_id;sensor_type;location;lat;lon;timestamp;P1;durP1;ratioP1;P2;durP2;ratioP2
45342;SDS011;31077;50.872;4.352;2022-11-15T00:00:23;5.78;;;3.63;;
45342;SDS011;31077;50.872;4.352;2022-11-15T00:02:51;6.35;;;4.05;;
45342;SDS011;31077;50.872;4.352;2022-11-15T00:05:18;5.03;;;3.95;;
45342;SDS011;31077;50.872;4.352;2022-11-15T00:07:44;9.02;;;4.00;;
45342;SDS011;31077;50.872;4.352;2022-11-15T00:10:09;5.32;;;3.55;;
45342;SDS011;31077;50.872;4.352;2022-11-15T00:12:36;6.80;;;4.03;;
45342;SDS011;31077;50.872;4.352;2022-11-15T00:15:02;6.15;;;3.92;;
45342;SDS011;31077;50.872;4.352;2022-11-15T00:17:28;6.57;;;4.13;;
45342;SDS011;31077;50.872;4.352;2022-11-15T00:19:54;5.82;;;3.95;;
45342;SDS011;31077;50.872;4.352;2022-11-15T00:22:20;4.95;;;3.67;;
45342;SDS011;31077;50.872;4.352;2022-11-15T00:24:46;6.63;;;3.80;;
45342;SDS011;31077;50.872;4.352;2022-11-15T00:27:12;6.07;;;4.10;;
45342;SDS011;31077;50.872;4.352;2022-11-15T00:29:37;6.38;;;4.00;;
45342;SDS011;31077;50.872;4.352;2022-11-15T00:32:08;5.40;;;3.85;;
45342;SDS011;31077;50.872;4.352;2022-11-15T00:34:34;7.40;;;3.85;;
45342;SDS011;31077;50.872;4.352;2022-11-15T00:37:00;5.93;;;3.45;;
45342;SDS011;31077;50.872;4.352;2022-11-15T00:39:26;5.70;;;4.05;;
45342;SDS011;31077;50.872;4.352;2022-11-15T00:41:52;7.05;;;3.83;;
45342;SDS011;31077;50.872;4.352;2022-11-15T00:44:17;5.03;;;3.85;;
45342;SDS011;31077;50.872;4.352;2022-11-15T00:46:43;5.40;;;3.88;;
45342;SDS011;31077;50.872;4.352;2022-11-15T00:49:09;4.75;;;3.25;;
45342;SDS011;31077;50.872;4.352;2022-11-15T00:51:35;6.05;;;4.03;;
45342;SDS011;31077;50.872;4.352;2022-11-15T00:54:01;5.28;;;3.95;;
45342;SDS011;31077;50.872;4.352;2022-11-15T00:56:27;8.38;;;4.60;;
45342;SDS011;31077;50.872;4.352;2022-11-15T00:58:53;4.93;;;3.92;;
45342;SDS011;31077;50.872;4.352;2022-11-15T01:01:18;5.75;;;3.97;;
45342;SDS011;31077;50.872;4.352;2022-11-15T01:03:44;5.38;;;3.78;;
45342;SDS011;31077;50.872;4.352;2022-11-15T01:06:10;5.30;;;3.80;;
45342;SDS011;31077;50.872;4.352;2022-11-15T01:08:37;5.32;;;4.03;;
45342;SDS011;31077;50.872;4.352;2022-11-15T01:11:07;5.18;;;3.63;;
45342;SDS011;31077;50.872;4.352;2022-11-15T01:13:35;5.93;;;3.95;;
45342;SDS011;31077;50.872;4.352;2022-11-15T01:16:06;6.70;;;3.75;;
45342;SDS011;31077;50.872;4.352;2022-11-15T01:18:34;5.85;;;3.63;;
45342;SDS011;31077;50.872;4.352;2022-11-15T01:21:00;6.68;;;4.15;;
45342;SDS011;31077;50.872;4.352;2022-11-15T01:23:39;7.50;;;4.30;;
45342;SDS011;31077;50.872;4.352;2022-11-15T01:26:06;4.82;;;3.67;;
45342;SDS011;31077;50.872;4.352;2022-11-15T01:28:35;5.63;;;4.05;;
45342;SDS011;31077;50.872;4.352;2022-11-15T01:31:04;4.03;;;3.38;;
45342;SDS011;31077;50.872;4.352;2022-11-15T01:33:33;4.88;;;3.63;;
45342;SDS011;31077;50.872;4.352;2022-11-15T01:36:03;5.28;;;3.40;;
45342;SDS011;31077;50.872;4.352;2022-11-15T01:38:30;4.82;;;3.75;;
45342;SDS011;31077;50.872;4.352;2022-11-15T01:40:56;5.88;;;4.15;;
45342;SDS011;31077;50.872;4.352;2022-11-15T01:43:29;5.75;;;4.03;;
45342;SDS011;31077;50.872;4.352;2022-11-15T01:46:04;6.85;;;4.03;;
45342;SDS011;31077;50.872;4.352;2022-11-15T01:48:44;6.23;;;4.03;;
45342;SDS011;31077;50.872;4.352;2022-11-15T01:51:10;7.07;;;4.53;;
45342;SDS011;31077;50.872;4.352;2022-11-15T01:53:38;6.05;;;3.72;;
45342;SDS011;31077;50.872;4.352;2022-11-15T01:56:09;5.28;;;3.80;;
45342;SDS011;31077;50.872;4.352;2022-11-15T01:58:38;5.72;;;4.00;;
45342;SDS011;31077;50.872;4.352;2022-11-15T02:01:05;5.35;;;3.92;;
45342;SDS011;31077;50.872;4.352;2022-11-15T02:03:35;5.07;;;3.60;;
45342;SDS011;31077;50.872;4.352;2022-11-15T02:06:06;5.85;;;3.90;;
45342;SDS011;31077;50.872;4.352;2022-11-15T02:08:33;5.63;;;3.40;;
45342;SDS011;31077;50.872;4.352;2022-11-15T02:10:59;4.75;;;3.33;;
45342;SDS011;31077;50.872;4.352;2022-11-15T02:13:24;4.85;;;3.78;;
45342;SDS011;31077;50.872;4.352;2022-11-15T02:16:12;5.78;;;3.38;;
45342;SDS011;31077;50.872;4.352;2022-11-15T02:22:04;6.47;;;3.33;;
45342;SDS011;31077;50.872;4.352;2022-11-15T02:32:16;7.70;;;3.60;;
45342;SDS011;31077;50.872;4.352;2022-11-15T02:35:19;7.43;;;3.80;;
45342;SDS011;31077;50.872;4.352;2022-11-15T02:37:59;5.20;;;3.72;;
45342;SDS011;31077;50.872;4.352;2022-11-15T02:40:48;4.75;;;3.15;;
45342;SDS011;31077;50.872;4.352;2022-11-15T02:43:31;5.13;;;3.47;;
45342;SDS011;31077;50.872;4.352;2022-11-15T02:49:22;6.20;;;3.30;;
45342;SDS011;31077;50.872;4.352;2022-11-15T02:51:50;4.85;;;2.97;;
45342;SDS011;31077;50.872;4.352;2022-11-15T02:54:20;5.18;;;3.08;;
45342;SDS011;31077;50.872;4.352;2022-11-15T02:56:48;4.03;;;2.70;;
45342;SDS011;31077;50.872;4.352;2022-11-15T03:08:02;4.80;;;2.83;;
45342;SDS011;31077;50.872;4.352;2022-11-15T03:10:46;6.78;;;3.38;;
45342;SDS011;31077;50.872;4.352;2022-11-15T03:13:24;6.55;;;3.20;;
45342;SDS011;31077;50.872;4.352;2022-11-15T03:16:02;3.85;;;2.85;;
45342;SDS011;31077;50.872;4.352;2022-11-15T03:18:45;6.68;;;3.42;;
45342;SDS011;31077;50.872;4.352;2022-11-15T03:21:17;4.28;;;3.08;;
45342;SDS011;31077;50.872;4.352;2022-11-15T03:23:44;4.03;;;2.75;;
45342;SDS011;31077;50.872;4.352;2022-11-15T03:26:13;4.25;;;2.60;;
45342;SDS011;31077;50.872;4.352;2022-11-15T03:28:53;4.28;;;3.03;;
45342;SDS011;31077;50.872;4.352;2022-11-15T03:31:23;5.82;;;2.92;;
45342;SDS011;31077;50.872;4.352;2022-11-15T03:37:01;3.85;;;2.50;;
45342;SDS011;31077;50.872;4.352;2022-11-15T03:39:26;2.78;;;2.45;;
45342;SDS011;31077;50.872;4.352;2022-11-15T03:41:56;4.22;;;2.90;;
45342;SDS011;31077;50.872;4.352;2022-11-15T03:49:52;4.57;;;3.17;;
45342;SDS011;31077;50.872;4.352;2022-11-15T03:52:22;3.63;;;2.50;;
45342;SDS011;31077;50.872;4.352;2022-11-15T03:54:57;4.05;;;2.30;;
45342;SDS011;31077;50.872;4.352;2022-11-15T03:57:26;3.97;;;2.33;;
45342;SDS011;31077;50.872;4.352;2022-11-15T03:59:52;3.47;;;2.40;;
45342;SDS011;31077;50.872;4.352;2022-11-15T04:02:18;3.92;;;2.58;;
45342;SDS011;31077;50.872;4.352;2022-11-15T04:04:43;2.75;;;2.17;;
45342;SDS011;31077;50.872;4.352;2022-11-15T04:07:09;2.72;;;2.03;;
45342;SDS011;31077;50.872;4.352;2022-11-15T04:09:35;3.60;;;2.20;;
45342;SDS011;31077;50.872;4.352;2022-11-15T04:12:23;3.58;;;1.85;;
45342;SDS011;31077;50.872;4.352;2022-11-15T04:15:05;3.05;;;2.15;;
45342;SDS011;31077;50.872;4.352;2022-11-15T04:17:37;4.22;;;2.30;;
45342;SDS011;31077;50.872;4.352;2022-11-15T04:20:18;3.38;;;2.05;;
45342;SDS011;31077;50.872;4.352;2022-11-15T04:23:09;3.63;;;2.10;;
45342;SDS011;31077;50.872;4.352;2022-11-15T04:25:55;3.67;;;2.13;;
45342;SDS011;31077;50.872;4.352;2022-11-15T04:28:23;3.80;;;2.20;;
45342;SDS011;31077;50.872;4.352;2022-11-15T04:30:49;4.47;;;2.38;;
45342;SDS011;31077;50.872;4.352;2022-11-15T04:33:15;3.10;;;1.83;;
45342;SDS011;31077;50.872;4.352;2022-11-15T04:35:41;3.00;;;2.00;;
45342;SDS011;31077;50.872;4.352;2022-11-15T04:38:08;5.07;;;2.03;;
45342;SDS011;31077;50.872;4.352;2022-11-15T04:40:35;2.95;;;1.40;;
45342;SDS011;31077;50.872;4.352;2022-11-15T04:43:03;3.85;;;1.88;;
45342;SDS011;31077;50.872;4.352;2022-11-15T04:45:29;3.00;;;2.10;;
45342;SDS011;31077;50.872;4.352;2022-11-15T04:47:55;3.97;;;2.17;;
45342;SDS011;31077;50.872;4.352;2022-11-15T04:50:21;2.20;;;1.63;;
45342;SDS011;31077;50.872;4.352;2022-11-15T04:52:50;3.38;;;2.15;;
45342;SDS011;31077;50.872;4.352;2022-11-15T04:55:17;2.53;;;1.70;;
45342;SDS011;31077;50.872;4.352;2022-11-15T04:57:43;4.00;;;1.95;;
45342;SDS011;31077;50.872;4.352;2022-11-15T05:00:10;6.38;;;1.88;;
45342;SDS011;31077;50.872;4.352;2022-11-15T05:02:38;3.03;;;1.60;;
45342;SDS011;31077;50.872;4.352;2022-11-15T05:05:23;2.50;;;1.60;;
45342;SDS011;31077;50.872;4.352;2022-11-15T05:07:49;4.55;;;1.95;;
45342;SDS011;31077;50.872;4.352;2022-11-15T05:10:15;2.00;;;1.60;;
45342;SDS011;31077;50.872;4.352;2022-11-15T05:12:41;3.47;;;1.65;;
45342;SDS011;31077;50.872;4.352;2022-11-15T05:15:07;3.05;;;1.67;;
45342;SDS011;31077;50.872;4.352;2022-11-15T05:17:33;2.50;;;1.67;;
45342;SDS011;31077;50.872;4.352;2022-11-15T05:19:59;3.00;;;1.92;;
45342;SDS011;31077;50.872;4.352;2022-11-15T05:22:25;2.85;;;1.58;;
45342;SDS011;31077;50.872;4.352;2022-11-15T05:24:51;3.50;;;1.80;;
45342;SDS011;31077;50.872;4.352;2022-11-15T05:27:17;3.58;;;1.88;;
45342;SDS011;31077;50.872;4.352;2022-11-15T05:29:43;3.08;;;1.50;;
45342;SDS011;31077;50.872;4.352;2022-11-15T05:32:09;2.03;;;1.67;;
45342;SDS011;31077;50.872;4.352;2022-11-15T05:34:36;3.15;;;1.58;;
45342;SDS011;31077;50.872;4.352;2022-11-15T05:37:02;2.65;;;1.70;;
45342;SDS011;31077;50.872;4.352;2022-11-15T05:39:28;2.05;;;1.23;;
45342;SDS011;31077;50.872;4.352;2022-11-15T05:41:55;3.55;;;1.65;;
45342;SDS011;31077;50.872;4.352;2022-11-15T05:44:30;2.07;;;1.30;;
45342;SDS011;31077;50.872;4.352;2022-11-15T05:46:57;1.90;;;1.27;;
45342;SDS011;31077;50.872;4.352;2022-11-15T05:49:24;2.58;;;1.50;;
45342;SDS011;31077;50.872;4.352;2022-11-15T05:51:52;2.42;;;1.50;;
45342;SDS011;31077;50.872;4.352;2022-11-15T05:54:19;4.97;;;1.67;;
45342;SDS011;31077;50.872;4.352;2022-11-15T05:56:46;2.10;;;1.60;;
45342;SDS011;31077;50.872;4.352;2022-11-15T05:59:12;2.80;;;1.40;;
45342;SDS011;31077;50.872;4.352;2022-11-15T06:01:38;2.55;;;1.40;;
45342;SDS011;31077;50.872;4.352;2022-11-15T06:04:04;4.60;;;1.27;;
45342;SDS011;31077;50.872;4.352;2022-11-15T06:06:30;2.58;;;1.20;;
45342;SDS011;31077;50.872;4.352;2022-11-15T06:08:56;2.60;;;1.30;;
45342;SDS011;31077;50.872;4.352;2022-11-15T06:11:21;1.52;;;1.10;;
45342;SDS011;31077;50.872;4.352;2022-11-15T06:13:47;2.20;;;1.42;;
45342;SDS011;31077;50.872;4.352;2022-11-15T06:16:13;3.33;;;1.52;;
45342;SDS011;31077;50.872;4.352;2022-11-15T06:18:38;1.48;;;1.10;;
45342;SDS011;31077;50.872;4.352;2022-11-15T06:21:04;2.42;;;1.30;;
45342;SDS011;31077;50.872;4.352;2022-11-15T06:23:31;2.25;;;1.30;;
45342;SDS011;31077;50.872;4.352;2022-11-15T06:25:59;1.95;;;1.00;;
45342;SDS011;31077;50.872;4.352;2022-11-15T06:28:28;2.03;;;1.20;;
45342;SDS011;31077;50.872;4.352;2022-11-15T06:30:54;3.42;;;1.40;;
45342;SDS011;31077;50.872;4.352;2022-11-15T06:33:20;2.05;;;1.20;;
45342;SDS011;31077;50.872;4.352;2022-11-15T06:35:46;1.42;;;1.10;;
45342;SDS011;31077;50.872;4.352;2022-11-15T06:38:11;2.55;;;1.40;;
45342;SDS011;31077;50.872;4.352;2022-11-15T06:40:38;3.05;;;1.30;;
45342;SDS011;31077;50.872;4.352;2022-11-15T06:43:05;2.78;;;1.20;;
45342;SDS011;31077;50.872;4.352;2022-11-15T06:45:31;1.95;;;1.20;;
45342;SDS011;31077;50.872;4.352;2022-11-15T06:47:57;1.70;;;1.15;;
45342;SDS011;31077;50.872;4.352;2022-11-15T06:50:23;1.75;;;1.15;;
45342;SDS011;31077;50.872;4.352;2022-11-15T06:52:49;2.10;;;1.20;;
45342;SDS011;31077;50.872;4.352;2022-11-15T06:55:15;3.42;;;1.30;;
45342;SDS011;31077;50.872;4.352;2022-11-15T06:57:47;2.97;;;1.30;;
45342;SDS011;31077;50.872;4.352;2022-11-15T07:02:43;1.23;;;1.10;;
45342;SDS011;31077;50.872;4.352;2022-11-15T07:05:09;3.22;;;1.40;;
45342;SDS011;31077;50.872;4.352;2022-11-15T07:07:35;2.13;;;1.20;;
45342;SDS011;31077;50.872;4.352;2022-11-15T07:10:01;2.08;;;1.02;;
45342;SDS011;31077;50.872;4.352;2022-11-15T07:12:27;2.78;;;1.20;;
45342;SDS011;31077;50.872;4.352;2022-11-15T07:14:53;3.33;;;1.48;;
45342;SDS011;31077;50.872;4.352;2022-11-15T07:17:18;2.95;;;1.25;;
45342;SDS011;31077;50.872;4.352;2022-11-15T07:19:44;2.13;;;1.13;;
45342;SDS011;31077;50.872;4.352;2022-11-15T07:22:10;2.05;;;1.08;;
45342;SDS011;31077;50.872;4.352;2022-11-15T07:24:36;2.25;;;1.20;;
45342;SDS011;31077;50.872;4.352;2022-11-15T07:27:01;2.28;;;1.35;;
45342;SDS011;31077;50.872;4.352;2022-11-15T07:29:27;1.80;;;0.98;;
45342;SDS011;31077;50.872;4.352;2022-11-15T07:31:53;2.42;;;1.23;;
45342;SDS011;31077;50.872;4.352;2022-11-15T07:34:18;2.40;;;1.10;;
45342;SDS011;31077;50.872;4.352;2022-11-15T07:36:44;4.35;;;1.20;;
45342;SDS011;31077;50.872;4.352;2022-11-15T07:39:10;2.22;;;1.25;;
45342;SDS011;31077;50.872;4.352;2022-11-15T07:41:37;2.85;;;1.40;;
45342;SDS011;31077;50.872;4.352;2022-11-15T07:44:03;3.97;;;1.50;;
45342;SDS011;31077;50.872;4.352;2022-11-15T07:46:29;2.28;;;1.30;;
45342;SDS011;31077;50.872;4.352;2022-11-15T07:48:56;4.55;;;1.38;;
45342;SDS011;31077;50.872;4.352;2022-11-15T07:51:22;2.35;;;1.40;;
45342;SDS011;31077;50.872;4.352;2022-11-15T07:53:48;3.60;;;1.45;;
45342;SDS011;31077;50.872;4.352;2022-11-15T07:56:13;1.45;;;1.00;;
45342;SDS011;31077;50.872;4.352;2022-11-15T07:58:39;2.72;;;1.17;;
45342;SDS011;31077;50.872;4.352;2022-11-15T08:01:06;2.80;;;1.13;;
45342;SDS011;31077;50.872;4.352;2022-11-15T08:03:33;1.85;;;1.00;;
45342;SDS011;31077;50.872;4.352;2022-11-15T08:06:00;2.20;;;1.10;;
45342;SDS011;31077;50.872;4.352;2022-11-15T08:08:25;2.05;;;1.00;;
45342;SDS011;31077;50.872;4.352;2022-11-15T08:10:51;1.77;;;1.20;;
45342;SDS011;31077;50.872;4.352;2022-11-15T08:13:17;2.65;;;1.48;;
45342;SDS011;31077;50.872;4.352;2022-11-15T08:15:43;4.15;;;1.30;;
45342;SDS011;31077;50.872;4.352;2022-11-15T08:18:10;1.98;;;1.15;;
45342;SDS011;31077;50.872;4.352;2022-11-15T08:20:39;2.58;;;1.10;;
45342;SDS011;31077;50.872;4.352;2022-11-15T08:23:06;1.52;;;0.93;;
45342;SDS011;31077;50.872;4.352;2022-11-15T08:25:33;2.58;;;1.00;;
45342;SDS011;31077;50.872;4.352;2022-11-15T08:28:00;2.30;;;1.25;;
45342;SDS011;31077;50.872;4.352;2022-11-15T08:30:29;2.60;;;1.02;;
45342;SDS011;31077;50.872;4.352;2022-11-15T08:32:57;2.10;;;1.20;;
45342;SDS011;31077;50.872;4.352;2022-11-15T08:35:23;2.75;;;1.55;;
45342;SDS011;31077;50.872;4.352;2022-11-15T08:37:50;1.90;;;0.93;;
45342;SDS011;31077;50.872;4.352;2022-11-15T08:40:18;1.35;;;0.85;;
45342;SDS011;31077;50.872;4.352;2022-11-15T08:42:45;1.83;;;0.90;;
45342;SDS011;31077;50.872;4.352;2022-11-15T08:45:12;1.95;;;1.00;;
45342;SDS011;31077;50.872;4.352;2022-11-15T08:47:38;3.83;;;1.60;;
45342;SDS011;31077;50.872;4.352;2022-11-15T08:50:04;3.33;;;1.35;;
45342;SDS011;31077;50.872;4.352;2022-11-15T08:52:30;1.88;;;1.02;;
45342;SDS011;31077;50.872;4.352;2022-11-15T08:54:56;1.65;;;0.90;;
45342;SDS011;31077;50.872;4.352;2022-11-15T08:57:22;2.78;;;1.27;;
45342;SDS011;31077;50.872;4.352;2022-11-15T08:59:48;1.92;;;1.13;;
45342;SDS011;31077;50.872;4.352;2022-11-15T09:02:14;2.55;;;1.00;;
45342;SDS011;31077;50.872;4.352;2022-11-15T09:04:41;1.58;;;0.90;;
45342;SDS011;31077;50.872;4.352;2022-11-15T09:07:08;2.30;;;1.13;;
45342;SDS011;31077;50.872;4.352;2022-11-15T09:09:35;2.50;;;0.95;;
45342;SDS011;31077;50.872;4.352;2022-11-15T09:12:01;3.13;;;0.90;;
45342;SDS011;31077;50.872;4.352;2022-11-15T09:14:27;5.30;;;1.13;;
45342;SDS011;31077;50.872;4.352;2022-11-15T09:16:52;1.45;;;1.05;;
45342;SDS011;31077;50.872;4.352;2022-11-15T09:19:18;1.77;;;1.20;;
45342;SDS011;31077;50.872;4.352;2022-11-15T09:21:44;1.67;;;1.00;;
45342;SDS011;31077;50.872;4.352;2022-11-15T09:24:09;1.58;;;1.10;;
45342;SDS011;31077;50.872;4.352;2022-11-15T09:26:35;2.58;;;1.00;;
45342;SDS011;31077;50.872;4.352;2022-11-15T09:29:01;2.67;;;1.10;;
45342;SDS011;31077;50.872;4.352;2022-11-15T09:31:27;3.70;;;1.40;;
45342;SDS011;31077;50.872;4.352;2022-11-15T09:33:54;2.42;;;1.25;;
45342;SDS011;31077;50.872;4.352;2022-11-15T09:36:20;1.10;;;0.90;;
45342;SDS011;31077;50.872;4.352;2022-11-15T09:38:46;4.72;;;1.00;;
45342;SDS011;31077;50.872;4.352;2022-11-15T09:43:47;2.45;;;1.10;;
45342;SDS011;31077;50.872;4.352;2022-11-15T09:49:41;1.88;;;1.17;;
45342;SDS011;31077;50.872;4.352;2022-11-15T09:52:07;1.13;;;1.02;;
45342;SDS011;31077;50.872;4.352;2022-11-15T09:54:36;4.97;;;1.30;;
45342;SDS011;31077;50.872;4.352;2022-11-15T09:57:05;1.95;;;0.90;;
45342;SDS011;31077;50.872;4.352;2022-11-15T10:02:24;2.50;;;1.00;;
45342;SDS011;31077;50.872;4.352;2022-11-15T10:04:59;3.33;;;1.20;;
45342;SDS011;31077;50.872;4.352;2022-11-15T10:08:10;1.83;;;0.93;;
45342;SDS011;31077;50.872;4.352;2022-11-15T10:10:40;2.25;;;1.02;;
45342;SDS011;31077;50.872;4.352;2022-11-15T10:13:13;2.05;;;1.00;;
45342;SDS011;31077;50.872;4.352;2022-11-15T10:20:57;2.42;;;0.90;;
45342;SDS011;31077;50.872;4.352;2022-11-15T10:23:25;2.25;;;1.02;;
45342;SDS011;31077;50.872;4.352;2022-11-15T10:25:54;3.33;;;1.02;;
45342;SDS011;31077;50.872;4.352;2022-11-15T10:28:26;2.80;;;1.23;;
45342;SDS011;31077;50.872;4.352;2022-11-15T10:30:54;2.45;;;1.10;;
45342;SDS011;31077;50.872;4.352;2022-11-15T10:44:16;1.95;;;1.00;;
45342;SDS011;31077;50.872;4.352;2022-11-15T10:49:26;1.17;;;0.77;;
45342;SDS011;31077;50.872;4.352;2022-11-15T10:52:01;1.50;;;0.88;;
45342;SDS011;31077;50.872;4.352;2022-11-15T10:57:15;3.17;;;1.10;;
45342;SDS011;31077;50.872;4.352;2022-11-15T10:59:48;3.60;;;0.90;;
45342;SDS011;31077;50.872;4.352;2022-11-15T11:02:38;1.30;;;0.70;;
45342;SDS011;31077;50.872;4.352;2022-11-15T11:08:02;2.38;;;1.20;;
45342;SDS011;31077;50.872;4.352;2022-11-15T11:10:52;3.08;;;1.15;;
45342;SDS011;31077;50.872;4.352;2022-11-15T11:13:34;2.20;;;1.15;;
45342;SDS011;31077;50.872;4.352;2022-11-15T11:24:24;1.58;;;0.88;;
45342;SDS011;31077;50.872;4.352;2022-11-15T11:27:13;2.17;;;0.95;;
45342;SDS011;31077;50.872;4.352;2022-11-15T11:29:56;2.28;;;1.08;;
45342;SDS011;31077;50.872;4.352;2022-11-15T11:32:28;2.20;;;1.00;;
45342;SDS011;31077;50.872;4.352;2022-11-15T11:35:17;2.03;;;0.95;;
45342;SDS011;31077;50.872;4.352;2022-11-15T11:52:11;3.15;;;1.10;;
45342;SDS011;31077;50.872;4.352;2022-11-15T11:54:45;2.10;;;1.08;;
45342;SDS011;31077;50.872;4.352;2022-11-15T11:57:33;2.63;;;0.90;;
45342;SDS011;31077;50.872;4.352;2022-11-15T12:00:15;2.03;;;0.95;;
45342;SDS011;31077;50.872;4.352;2022-11-15T12:08:23;2.85;;;1.15;;
45342;SDS011;31077;50.872;4.352;2022-11-15T12:10:48;1.65;;;0.85;;
45342;SDS011;31077;50.872;4.352;2022-11-15T12:13:25;3.05;;;1.10;;
45342;SDS011;31077;50.872;4.352;2022-11-15T12:18:29;3.88;;;1.15;;
45342;SDS011;31077;50.872;4.352;2022-11-15T12:21:03;2.10;;;1.08;;
45342;SDS011;31077;50.872;4.352;2022-11-15T12:23:43;3.70;;;2.08;;
45342;SDS011;31077;50.872;4.352;2022-11-15T12:26:21;2.60;;;1.00;;
45342;SDS011;31077;50.872;4.352;2022-11-15T12:28:58;2.15;;;0.75;;
45342;SDS011;31077;50.872;4.352;2022-11-15T12:31:47;2.90;;;0.90;;
45342;SDS011;31077;50.872;4.352;2022-11-15T12:36:45;4.07;;;1.23;;
45342;SDS011;31077;50.872;4.352;2022-11-15T12:39:12;4.47;;;1.40;;
45342;SDS011;31077;50.872;4.352;2022-11-15T12:41:39;2.63;;;1.10;;
45342;SDS011;31077;50.872;4.352;2022-11-15T12:44:10;2.45;;;0.90;;
45342;SDS011;31077;50.872;4.352;2022-11-15T13:02:30;2.70;;;0.98;;
45342;SDS011;31077;50.872;4.352;2022-11-15T13:18:50;2.67;;;1.08;;
45342;SDS011;31077;50.872;4.352;2022-11-15T13:20:52;3.30;;;1.10;;
45342;SDS011;31077;50.872;4.352;2022-11-15T13:23:18;2.72;;;0.80;;
45342;SDS011;31077;50.872;4.352;2022-11-15T13:28:34;3.10;;;1.17;;
45342;SDS011;31077;50.872;4.352;2022-11-15T13:31:16;2.40;;;1.00;;
45342;SDS011;31077;50.872;4.352;2022-11-15T13:33:46;1.70;;;1.17;;
45342;SDS011;31077;50.872;4.352;2022-11-15T13:36:20;2.53;;;0.80;;
45342;SDS011;31077;50.872;4.352;2022-11-15T13:38:54;1.80;;;0.82;;
45342;SDS011;31077;50.872;4.352;2022-11-15T13:43:50;1.83;;;0.90;;
45342;SDS011;31077;50.872;4.352;2022-11-15T13:46:18;2.35;;;1.00;;
45342;SDS011;31077;50.872;4.352;2022-11-15T13:48:55;2.00;;;0.95;;
45342;SDS011;31077;50.872;4.352;2022-11-15T13:56:37;2.35;;;0.95;;
45342;SDS011;31077;50.872;4.352;2022-11-15T13:59:24;4.60;;;1.00;;
45342;SDS011;31077;50.872;4.352;2022-11-15T14:02:02;1.67;;;0.97;;
45342;SDS011;31077;50.872;4.352;2022-11-15T14:04:53;1.90;;;0.80;;
45342;SDS011;31077;50.872;4.352;2022-11-15T14:07:25;2.33;;;1.00;;
45342;SDS011;31077;50.872;4.352;2022-11-15T14:09:54;2.88;;;0.85;;
45342;SDS011;31077;50.872;4.352;2022-11-15T14:12:26;5.53;;;1.20;;
45342;SDS011;31077;50.872;4.352;2022-11-15T14:14:54;2.50;;;1.27;;
45342;SDS011;31077;50.872;4.352;2022-11-15T14:17:32;1.05;;;0.63;;
45342;SDS011;31077;50.872;4.352;2022-11-15T14:19:59;1.95;;;0.90;;
45342;SDS011;31077;50.872;4.352;2022-11-15T14:22:25;1.38;;;0.77;;
45342;SDS011;31077;50.872;4.352;2022-11-15T14:27:38;1.00;;;0.90;;
45342;SDS011;31077;50.872;4.352;2022-11-15T14:30:05;2.40;;;0.80;;
45342;SDS011;31077;50.872;4.352;2022-11-15T14:32:44;0.93;;;0.60;;
45342;SDS011;31077;50.872;4.352;2022-11-15T14:35:15;1.92;;;0.93;;
45342;SDS011;31077;50.872;4.352;2022-11-15T14:37:45;1.92;;;1.05;;
45342;SDS011;31077;50.872;4.352;2022-11-15T14:40:13;1.85;;;0.82;;
45342;SDS011;31077;50.872;4.352;2022-11-15T14:42:41;1.83;;;0.77;;
45342;SDS011;31077;50.872;4.352;2022-11-15T14:47:43;1.58;;;0.90;;
45342;SDS011;31077;50.872;4.352;2022-11-15T14:50:19;1.15;;;0.70;;
45342;SDS011;31077;50.872;4.352;2022-11-15T14:52:46;2.42;;;1.00;;
45342;SDS011;31077;50.872;4.352;2022-11-15T14:55:21;1.42;;;0.93;;
45342;SDS011;31077;50.872;4.352;2022-11-15T14:57:50;1.33;;;0.98;;
45342;SDS011;31077;50.872;4.352;2022-11-15T15:00:17;4.10;;;1.30;;
45342;SDS011;31077;50.872;4.352;2022-11-15T15:02:44;2.60;;;1.00;;
45342;SDS011;31077;50.872;4.352;2022-11-15T15:05:19;2.13;;;0.80;;
45342;SDS011;31077;50.872;4.352;2022-11-15T15:07:50;1.20;;;0.80;;
45342;SDS011;31077;50.872;4.352;2022-11-15T15:10:18;2.25;;;0.90;;
45342;SDS011;31077;50.872;4.352;2022-11-15T15:12:44;2.53;;;1.23;;
45342;SDS011;31077;50.872;4.352;2022-11-15T15:15:22;1.67;;;1.30;;
45342;SDS011;31077;50.872;4.352;2022-11-15T15:17:49;1.30;;;0.90;;
45342;SDS011;31077;50.872;4.352;2022-11-15T15:20:15;1.70;;;1.13;;
45342;SDS011;31077;50.872;4.352;2022-11-15T15:22:41;1.70;;;0.95;;
45342;SDS011;31077;50.872;4.352;2022-11-15T15:25:24;1.20;;;0.70;;
45342;SDS011;31077;50.872;4.352;2022-11-15T15:27:57;2.15;;;0.73;;
45342;SDS011;31077;50.872;4.352;2022-11-15T15:30:23;6.35;;;1.20;;
45342;SDS011;31077;50.872;4.352;2022-11-15T15:32:50;1.25;;;0.88;;
45342;SDS011;31077;50.872;4.352;2022-11-15T15:35:16;2.00;;;0.90;;
45342;SDS011;31077;50.872;4.352;2022-11-15T15:37:43;1.80;;;0.80;;
45342;SDS011;31077;50.872;4.352;2022-11-15T15:40:20;3.00;;;1.10;;
45342;SDS011;31077;50.872;4.352;2022-11-15T15:42:47;2.30;;;0.88;;
45342;SDS011;31077;50.872;4.352;2022-11-15T15:45:14;1.95;;;0.98;;
45342;SDS011;31077;50.872;4.352;2022-11-15T15:47:40;1.42;;;1.10;;
45342;SDS011;31077;50.872;4.352;2022-11-15T15:50:26;2.05;;;0.93;;
45342;SDS011;31077;50.872;4.352;2022-11-15T15:52:58;3.55;;;1.02;;
45342;SDS011;31077;50.872;4.352;2022-11-15T15:55:25;4.03;;;1.50;;
45342;SDS011;31077;50.872;4.352;2022-11-15T15:57:51;4.13;;;0.90;;
45342;SDS011;31077;50.872;4.352;2022-11-15T16:00:17;3.35;;;1.00;;
45342;SDS011;31077;50.872;4.352;2022-11-15T16:02:44;1.35;;;1.00;;
45342;SDS011;31077;50.872;4.352;2022-11-15T16:05:10;1.33;;;1.00;;
45342;SDS011;31077;50.872;4.352;2022-11-15T16:07:37;2.67;;;0.90;;
45342;SDS011;31077;50.872;4.352;2022-11-15T16:10:14;4.35;;;0.93;;
45342;SDS011;31077;50.872;4.352;2022-11-15T16:12:43;1.60;;;0.90;;
45342;SDS011;31077;50.872;4.352;2022-11-15T16:15:09;2.45;;;0.90;;
45342;SDS011;31077;50.872;4.352;2022-11-15T16:17:36;2.28;;;1.08;;
45342;SDS011;31077;50.872;4.352;2022-11-15T16:20:04;3.08;;;1.02;;
45342;SDS011;31077;50.872;4.352;2022-11-15T16:22:30;2.45;;;1.10;;
45342;SDS011;31077;50.872;4.352;2022-11-15T16:24:56;3.25;;;1.02;;
45342;SDS011;31077;50.872;4.352;2022-11-15T16:27:22;2.33;;;1.05;;
45342;SDS011;31077;50.872;4.352;2022-11-15T16:29:48;1.98;;;1.08;;
45342;SDS011;31077;50.872;4.352;2022-11-15T16:32:15;8.77;;;1.40;;
45342;SDS011;31077;50.872;4.352;2022-11-15T16:34:41;9.82;;;1.23;;
45342;SDS011;31077;50.872;4.352;2022-11-15T16:37:22;4.13;;;1.00;;
45342;SDS011;31077;50.872;4.352;2022-11-15T16:39:48;16.70;;;1.30;;
45342;SDS011;31077;50.872;4.352;2022-11-15T16:42:15;4.82;;;1.05;;
45342;SDS011;31077;50.872;4.352;2022-11-15T16:44:40;7.07;;;0.98;;
45342;SDS011;31077;50.872;4.352;2022-11-15T16:47:13;2.15;;;1.17;;
45342;SDS011;31077;50.872;4.352;2022-11-15T16:54:33;8.18;;;0.80;;
45342;SDS011;31077;50.872;4.352;2022-11-15T16:56:59;3.38;;;1.00;;
45342;SDS011;31077;50.872;4.352;2022-11-15T16:59:25;14.20;;;1.40;;
45342;SDS011;31077;50.872;4.352;2022-11-15T17:01:50;2.70;;;1.17;;
45342;SDS011;31077;50.872;4.352;2022-11-15T17:04:17;3.28;;;1.20;;
45342;SDS011;31077;50.872;4.352;2022-11-15T17:06:44;2.60;;;1.02;;
45342;SDS011;31077;50.872;4.352;2022-11-15T17:09:21;4.78;;;1.30;;
45342;SDS011;31077;50.872;4.352;2022-11-15T17:11:50;1.25;;;1.15;;
45342;SDS011;31077;50.872;4.352;2022-11-15T17:14:16;4.30;;;1.13;;
45342;SDS011;31077;50.872;4.352;2022-11-15T17:16:42;3.03;;;1.35;;
45342;SDS011;31077;50.872;4.352;2022-11-15T17:19:26;16.23;;;1.42;;
45342;SDS011;31077;50.872;4.352;2022-11-15T17:21:52;4.68;;;1.20;;
45342;SDS011;31077;50.872;4.352;2022-11-15T17:24:18;4.70;;;1.30;;
45342;SDS011;31077;50.872;4.352;2022-11-15T17:26:44;2.00;;;1.13;;
45342;SDS011;31077;50.872;4.352;2022-11-15T17:29:10;1.33;;;0.90;;
45342;SDS011;31077;50.872;4.352;2022-11-15T17:31:36;4.30;;;1.50;;